Time;durP1;ratioP1;P1;durP2;ratioP2;P2;SDS_P1;SDS_P2;PMS_P1;PMS_P2;Temp;Humidity;BMP_temperature;BMP_pressure;BME280_temperature;BME280_humidity;BME280_pressure;Samples;Min_cycle;Max_cycle;Signal;HPM_P1;HPM_P2
2022/12/18 00:02:37;;;;;;;35.10;18.75;;;-7.60;1.00;;;;;;5054853;28;20231;-87
2022/12/18 00:05:37;;;;;;;33.50;18.10;;;-7.60;1.00;;;;;;5054907;28;20511;-87
2022/12/18 00:08:37;;;;;;;35.28;19.73;;;-7.70;1.00;;;;;;5054704;28;20164;-88
2022/12/18 00:15:07;;;;;;;35.05;17.80;;;-7.70;1.00;;;;;;5054683;28;20182;-87
2022/12/18 00:18:07;;;;;;;37.33;19.25;;;-7.80;1.00;;;;;;5053617;28;20183;-88
2022/12/18 00:24:20;;;;;;;34.40;19.13;;;-7.90;1.00;;;;;;5072728;28;20708;-88
2022/12/18 00:30:37;;;;;;;30.48;19.08;;;-8.00;1.00;;;;;;5066819;28;20556;-87
2022/12/18 00:33:07;;;;;;;31.20;18.15;;;-8.00;1.00;;;;;;5063277;28;20183;-87
2022/12/18 00:36:07;;;;;;;35.38;18.95;;;-8.00;1.00;;;;;;5066635;28;20256;-87
2022/12/18 00:48:26;;;;;;;34.70;18.85;;;-8.00;1.00;;;;;;5069802;28;20255;-75
2022/12/18 00:50:56;;;;;;;33.63;18.63;;;-8.00;1.00;;;;;;5063525;28;20175;-75
2022/12/18 00:53:22;;;;;;;32.55;18.60;;;-8.00;1.00;;;;;;5053473;28;20187;-76
2022/12/18 00:55:47;;;;;;;34.15;18.17;;;-8.10;1.00;;;;;;5053208;28;20217;-76
2022/12/18 00:58:26;;;;;;;37.90;18.60;;;-8.00;1.00;;;;;;5057710;28;20179;-76
2022/12/18 01:00:51;;;;;;;32.85;18.42;;;-7.90;1.00;;;;;;5050609;28;20192;-76
2022/12/18 01:04:08;;;;;;;36.00;19.03;;;-7.90;1.00;;;;;;5072023;28;20183;-87
2022/12/18 01:07:24;;;;;;;37.88;19.10;;;-7.80;1.00;;;;;;5061322;28;20179;-87
2022/12/18 01:10:14;;;;;;;35.60;19.42;;;-7.70;1.00;;;;;;5054584;28;20215;-87
2022/12/18 01:16:10;;;;;;;39.30;20.02;;;-7.70;1.00;;;;;;5066247;28;20191;-87
2022/12/18 01:18:38;;;;;;;33.78;18.88;;;-7.70;1.00;;;;;;5059098;28;20588;-87
2022/12/18 01:21:26;;;;;;;38.28;18.35;;;-7.60;1.00;;;;;;5056740;28;20200;-87
2022/12/18 01:27:26;;;;;;;32.92;17.42;;;-7.70;1.00;;;;;;5053797;28;21017;-87
2022/12/18 01:29:52;;;;;;;35.25;17.83;;;-7.70;1.00;;;;;;5047771;28;20183;-87
2022/12/18 01:32:18;;;;;;;34.40;17.13;;;-7.70;1.00;;;;;;5075712;28;20182;-87
2022/12/18 01:34:56;;;;;;;33.27;17.27;;;-7.70;1.00;;;;;;5074290;28;20424;-87
2022/12/18 01:40:43;;;;;;;32.15;17.50;;;-7.70;1.00;;;;;;5050435;28;20249;-87
2022/12/18 01:47:13;;;;;;;33.20;17.55;;;-7.70;1.00;;;;;;5055948;28;20178;-87
2022/12/18 01:49:39;;;;;;;33.03;17.50;;;-7.70;1.00;;;;;;5054768;28;20190;-76
2022/12/18 01:52:15;;;;;;;39.07;19.13;;;-7.80;1.00;;;;;;5068679;28;20197;-75
2022/12/18 01:54:51;;;;;;;35.92;17.00;;;-7.80;1.00;;;;;;5049090;28;20309;-75
2022/12/18 01:57:27;;;;;;;33.13;17.40;;;-7.80;1.00;;;;;;5059291;28;20229;-76
2022/12/18 02:00:10;;;;;;;33.40;17.50;;;-7.80;1.00;;;;;;5069190;28;20179;-76
2022/12/18 02:02:56;;;;;;;33.15;18.25;;;-7.80;1.00;;;;;;5058323;28;20179;-76
2022/12/18 02:05:48;;;;;;;31.42;16.98;;;-7.80;1.00;;;;;;5061827;28;20171;-87
2022/12/18 02:11:59;;;;;;;33.03;18.08;;;-7.80;1.00;;;;;;5016155;28;20176;-87
2022/12/18 02:18:26;;;;;;;32.55;17.90;;;-7.80;1.00;;;;;;5015069;28;20231;-87
2022/12/18 02:21:05;;;;;;;32.75;18.15;;;-7.90;1.00;;;;;;5027647;28;20208;-76
2022/12/18 02:23:40;;;;;;;27.35;15.93;;;-7.90;1.00;;;;;;5014137;28;20184;-75
2022/12/18 02:26:14;;;;;;;31.17;17.30;;;-7.90;1.00;;;;;;5018230;28;20191;-75
2022/12/18 02:29:00;;;;;;;30.90;16.88;;;-7.90;1.00;;;;;;5016106;28;20299;-75
2022/12/18 02:31:36;;;;;;;27.63;16.70;;;-7.90;1.00;;;;;;5014399;28;20193;-75
2022/12/18 02:41:08;;;;;;;28.50;17.00;;;-8.00;1.00;;;;;;5014209;28;20258;-87
2022/12/18 02:44:09;;;;;;;29.23;16.95;;;-8.10;1.00;;;;;;5002984;28;20184;-87
2022/12/18 02:49:56;;;;;;;26.80;16.83;;;-8.20;1.00;;;;;;5050150;28;20249;-87
2022/12/18 02:53:04;;;;;;;27.50;16.00;;;-8.20;1.00;;;;;;5056168;28;20575;-87
2022/12/18 02:59:18;;;;;;;28.85;17.58;;;-8.20;1.00;;;;;;5001236;28;20780;-86
2022/12/18 03:12:24;;;;;;;34.67;17.50;;;-8.40;1.00;;;;;;5004004;28;20272;-87
2022/12/18 03:15:03;;;;;;;29.08;16.83;;;-8.50;1.00;;;;;;4998560;28;20291;-87
2022/12/18 03:21:06;;;;;;;28.25;16.40;;;-8.50;1.00;;;;;;5007231;28;20251;-75
2022/12/18 03:23:41;;;;;;;26.40;16.27;;;-8.50;1.00;;;;;;4993122;28;20190;-75
2022/12/18 03:26:12;;;;;;;27.23;16.52;;;-8.50;1.00;;;;;;5007365;28;20177;-76
2022/12/18 03:28:44;;;;;;;28.48;16.83;;;-8.60;1.00;;;;;;5005245;28;20183;-75
2022/12/18 03:31:23;;;;;;;28.55;15.05;;;-8.60;1.00;;;;;;5060286;28;20270;-75
2022/12/18 03:34:29;;;;;;;28.50;16.52;;;-8.60;1.00;;;;;;5036307;28;20616;-76
2022/12/18 03:36:54;;;;;;;27.45;17.67;;;-8.60;1.00;;;;;;5013812;28;20239;-87
2022/12/18 03:43:12;;;;;;;27.80;16.20;;;-8.60;1.00;;;;;;5013653;28;20428;-87
2022/12/18 03:49:06;;;;;;;28.27;16.95;;;-8.70;1.00;;;;;;5011342;28;20252;-75
2022/12/18 03:52:17;;;;;;;27.85;16.05;;;-8.70;1.00;;;;;;5013328;28;20247;-87
2022/12/18 03:54:52;;;;;;;27.73;16.45;;;-8.70;1.00;;;;;;5004099;28;20180;-87
2022/12/18 03:57:30;;;;;;;30.60;17.08;;;-8.70;1.00;;;;;;5006865;28;20184;-87
2022/12/18 04:03:19;;;;;;;27.70;16.30;;;-8.70;1.00;;;;;;5030591;28;20206;-87
2022/12/18 04:05:52;;;;;;;25.88;16.02;;;-8.70;1.00;;;;;;5017315;28;20181;-75
2022/12/18 04:08:27;;;;;;;22.30;15.57;;;-8.70;1.00;;;;;;5019249;28;20173;-75
2022/12/18 04:10:56;;;;;;;26.35;16.52;;;-8.80;1.00;;;;;;5023057;28;20202;-76
2022/12/18 04:13:29;;;;;;;28.17;16.23;;;-8.80;1.00;;;;;;5054091;28;20176;-76
2022/12/18 04:15:55;;;;;;;24.90;15.75;;;-8.80;1.00;;;;;;5067150;28;20188;-76
2022/12/18 04:18:20;;;;;;;28.00;16.67;;;-8.80;1.00;;;;;;5059148;28;20190;-75
2022/12/18 04:20:56;;;;;;;25.53;15.67;;;-8.70;1.00;;;;;;5066506;28;20216;-76
2022/12/18 04:23:22;;;;;;;28.55;16.27;;;-8.70;1.00;;;;;;5059411;28;20673;-75
2022/12/18 04:25:50;;;;;;;25.00;15.13;;;-8.70;1.00;;;;;;5052678;28;20168;-76
2022/12/18 04:28:16;;;;;;;23.05;14.35;;;-8.80;1.00;;;;;;5049303;28;20184;-75
2022/12/18 04:30:44;;;;;;;26.97;15.80;;;-8.80;1.00;;;;;;5038776;28;20214;-75
2022/12/18 04:33:20;;;;;;;29.98;16.90;;;-8.80;1.00;;;;;;5066676;28;20183;-76
2022/12/18 04:36:03;;;;;;;29.35;16.75;;;-8.80;1.00;;;;;;5060428;28;20202;-75
2022/12/18 04:38:28;;;;;;;28.67;15.93;;;-8.80;1.00;;;;;;5053606;28;20236;-75
2022/12/18 04:40:54;;;;;;;31.30;17.00;;;-8.80;1.00;;;;;;5063934;28;20253;-76
2022/12/18 04:43:20;;;;;;;29.20;16.33;;;-8.80;1.00;;;;;;5066915;28;20286;-76
2022/12/18 04:45:50;;;;;;;26.67;16.47;;;-8.80;1.00;;;;;;5053479;28;20394;-76
2022/12/18 04:48:21;;;;;;;26.77;15.63;;;-8.80;1.00;;;;;;5057336;28;20495;-75
2022/12/18 04:50:47;;;;;;;25.73;15.90;;;-8.80;1.00;;;;;;5063570;28;20195;-87
2022/12/18 04:59:56;;;;;;;26.52;16.02;;;-8.90;1.00;;;;;;5064370;28;20198;-87
2022/12/18 05:02:32;;;;;;;25.47;15.00;;;-8.80;1.00;;;;;;5065086;28;20178;-87
2022/12/18 05:05:08;;;;;;;26.60;15.75;;;-8.80;1.00;;;;;;5048826;28;20271;-87
2022/12/18 05:07:34;;;;;;;28.58;16.73;;;-8.80;1.00;;;;;;5034802;28;20161;-86
2022/12/18 05:10:00;;;;;;;24.60;15.70;;;-8.80;1.00;;;;;;5063903;28;20537;-87
2022/12/18 05:16:27;;;;;;;24.52;15.35;;;-8.80;1.00;;;;;;5065168;28;20209;-86
2022/12/18 05:18:53;;;;;;;27.15;16.90;;;-8.80;1.00;;;;;;5058933;28;20730;-86
2022/12/18 05:21:44;;;;;;;27.13;15.80;;;-8.80;1.00;;;;;;5060582;28;20290;-87
2022/12/18 05:27:31;;;;;;;25.60;15.48;;;-8.70;1.00;;;;;;5066628;28;20190;-86
2022/12/18 05:30:03;;;;;;;26.43;15.87;;;-8.70;1.00;;;;;;5063361;28;20175;-87
2022/12/18 05:32:44;;;;;;;26.90;15.88;;;-8.70;1.00;;;;;;5053539;28;20225;-87
2022/12/18 05:35:11;;;;;;;27.15;16.23;;;-8.70;1.00;;;;;;5046436;28;20168;-75
2022/12/18 05:37:37;;;;;;;27.52;15.40;;;-8.70;1.00;;;;;;5065825;28;20179;-75
2022/12/18 05:40:04;;;;;;;31.60;17.03;;;-8.70;1.00;;;;;;5068621;28;20186;-75
2022/12/18 05:42:31;;;;;;;26.00;15.85;;;-8.70;1.00;;;;;;5060645;28;20430;-75
2022/12/18 05:44:56;;;;;;;31.55;16.25;;;-8.60;1.00;;;;;;5047895;28;20160;-75
2022/12/18 05:47:22;;;;;;;28.60;16.40;;;-8.70;1.00;;;;;;5057260;28;20647;-75
2022/12/18 05:49:48;;;;;;;27.47;15.97;;;-8.70;1.00;;;;;;5053471;28;20267;-76
2022/12/18 05:52:44;;;;;;;29.87;17.80;;;-8.70;1.00;;;;;;5066406;28;20184;-86
2022/12/18 05:55:35;;;;;;;32.85;16.85;;;-8.70;1.00;;;;;;5055296;28;20221;-86
2022/12/18 05:58:04;;;;;;;27.90;16.88;;;-8.70;1.00;;;;;;5067114;28;20187;-87
2022/12/18 06:00:34;;;;;;;25.17;16.30;;;-8.70;1.00;;;;;;5054627;28;20200;-87
2022/12/18 06:06:27;;;;;;;30.00;18.00;;;-8.70;1.00;;;;;;5065041;28;20545;-87
2022/12/18 06:09:07;;;;;;;26.40;16.45;;;-8.70;1.00;;;;;;5063698;28;20217;-87
2022/12/18 06:14:55;;;;;;;25.73;16.35;;;-8.70;1.00;;;;;;5069074;28;20564;-86
2022/12/18 06:20:44;;;;;;;27.15;16.85;;;-8.70;1.00;;;;;;5050452;28;20306;-75
2022/12/18 06:23:10;;;;;;;25.67;16.52;;;-8.70;1.00;;;;;;5069527;28;20171;-75
2022/12/18 06:25:38;;;;;;;28.07;16.67;;;-8.70;1.00;;;;;;5055909;28;20232;-75
2022/12/18 06:28:08;;;;;;;25.92;16.40;;;-8.70;1.00;;;;;;5069461;28;20444;-75
2022/12/18 06:30:38;;;;;;;28.85;17.02;;;-8.60;1.00;;;;;;5059839;28;20634;-75
2022/12/18 06:33:15;;;;;;;25.65;15.55;;;-8.60;1.00;;;;;;5062641;28;20665;-75
2022/12/18 06:36:04;;;;;;;25.80;17.20;;;-8.60;1.00;;;;;;5061465;28;20654;-86
2022/12/18 06:38:33;;;;;;;29.45;17.92;;;-8.60;1.00;;;;;;5059384;28;20184;-86
2022/12/18 06:44:21;;;;;;;29.30;17.30;;;-8.60;1.00;;;;;;5056021;28;20182;-86
2022/12/18 06:50:08;;;;;;;26.10;15.20;;;-8.60;1.00;;;;;;5045407;28;20270;-87
2022/12/18 06:52:44;;;;;;;26.83;15.33;;;-8.70;1.00;;;;;;5045304;28;20210;-75
2022/12/18 06:55:14;;;;;;;24.45;15.80;;;-8.60;1.00;;;;;;5060449;28;20609;-75
2022/12/18 06:57:56;;;;;;;27.17;16.48;;;-8.60;1.00;;;;;;5055216;28;20171;-75
2022/12/18 07:00:32;;;;;;;25.92;16.05;;;-8.60;1.00;;;;;;5054530;28;20692;-75
2022/12/18 07:02:58;;;;;;;28.92;16.70;;;-8.60;1.00;;;;;;5061231;28;20175;-75
2022/12/18 07:05:26;;;;;;;26.70;15.40;;;-8.60;1.00;;;;;;5070941;28;20236;-75
2022/12/18 07:07:52;;;;;;;25.85;16.67;;;-8.60;1.00;;;;;;5073546;28;20162;-87
2022/12/18 07:10:26;;;;;;;28.83;16.77;;;-8.60;1.00;;;;;;5055390;28;20163;-86
2022/12/18 07:12:52;;;;;;;24.42;15.85;;;-8.60;1.00;;;;;;5054380;28;20430;-86
2022/12/18 07:18:39;;;;;;;24.83;15.65;;;-8.60;1.00;;;;;;5055363;28;20217;-87
2022/12/18 07:21:18;;;;;;;26.47;15.70;;;-8.60;1.00;;;;;;5055459;28;20643;-84
2022/12/18 07:23:47;;;;;;;28.42;16.85;;;-8.60;1.00;;;;;;5054401;28;20632;-84
2022/12/18 07:30:03;;;;;;;25.90;16.00;;;-8.50;1.00;;;;;;5051846;28;20209;-85
2022/12/18 07:32:32;;;;;;;25.30;15.85;;;-8.50;1.00;;;;;;5068284;28;20180;-86
2022/12/18 07:38:21;;;;;;;23.77;15.82;;;-8.50;1.00;;;;;;5035038;28;20321;-76
2022/12/18 07:40:46;;;;;;;25.77;15.98;;;-8.50;1.00;;;;;;5058657;28;20206;-77
2022/12/18 07:43:26;;;;;;;24.90;15.47;;;-8.50;1.00;;;;;;5064664;28;20172;-77
2022/12/18 07:45:52;;;;;;;27.75;16.65;;;-8.40;1.00;;;;;;5056129;28;20180;-77
2022/12/18 07:48:18;;;;;;;26.57;16.77;;;-8.40;1.00;;;;;;5040126;28;20183;-78
2022/12/18 07:50:44;;;;;;;26.07;15.27;;;-8.40;1.00;;;;;;5058843;28;20433;-77
2022/12/18 07:53:15;;;;;;;22.57;14.83;;;-8.30;1.00;;;;;;5054034;28;20171;-84
2022/12/18 08:02:32;;;;;;;27.00;16.58;;;-8.20;1.00;;;;;;5040247;28;20214;-85
2022/12/18 08:08:20;;;;;;;28.52;16.20;;;-8.10;1.00;;;;;;5054566;28;20217;-85
2022/12/18 08:14:32;;;;;;;31.77;17.70;;;-7.90;1.00;;;;;;5072787;28;20177;-85
2022/12/18 08:17:32;;;;;;;30.48;16.17;;;-7.80;1.00;;;;;;5057066;28;20180;-84
2022/12/18 08:23:21;;;;;;;33.20;15.70;;;-7.70;1.00;;;;;;5054286;28;20222;-76
2022/12/18 08:25:47;;;;;;;25.50;15.20;;;-7.60;1.00;;;;;;5049946;28;20177;-75
2022/12/18 08:28:13;;;;;;;28.97;15.83;;;-7.50;1.00;;;;;;5054122;28;20163;-75
2022/12/18 08:30:44;;;;;;;25.83;15.43;;;-7.50;1.00;;;;;;5052837;28;20475;-75
2022/12/18 08:33:10;;;;;;;26.65;15.20;;;-7.40;1.00;;;;;;5049921;28;20631;-75
2022/12/18 08:35:39;;;;;;;34.10;17.00;;;-7.30;1.00;;;;;;5057180;28;20191;-75
2022/12/18 08:41:33;;;;;;;29.15;16.88;;;-7.10;1.00;;;;;;5056163;28;20218;-86
2022/12/18 08:44:44;;;;;;;32.53;17.92;;;-7.00;1.00;;;;;;5065122;28;20202;-86
2022/12/18 08:57:15;;;;;;;32.33;17.88;;;-6.40;1.00;;;;;;5061709;28;20193;-86
2022/12/18 09:00:14;;;;;;;31.40;17.70;;;-6.30;1.00;;;;;;5066430;28;20179;-86
2022/12/18 09:02:45;;;;;;;35.50;19.77;;;-6.10;1.00;;;;;;5055762;28;20194;-86
2022/12/18 09:05:15;;;;;;;42.08;23.05;;;-6.00;1.00;;;;;;5054603;28;20221;-86
2022/12/18 09:07:45;;;;;;;36.22;20.73;;;-5.90;1.00;;;;;;5062952;28;20232;-76
2022/12/18 09:10:15;;;;;;;36.95;19.83;;;-5.80;1.00;;;;;;5057579;28;20305;-75
2022/12/18 09:12:40;;;;;;;42.70;21.75;;;-5.60;1.00;;;;;;5063874;28;20171;-75
2022/12/18 09:15:09;;;;;;;40.53;22.13;;;-5.50;1.00;;;;;;5062452;28;20236;-75
2022/12/18 09:17:45;;;;;;;40.55;20.73;;;-5.40;1.00;;;;;;5059158;28;20184;-75
2022/12/18 09:20:15;;;;;;;38.75;20.65;;;-5.30;1.00;;;;;;5062711;28;20658;-75
2022/12/18 09:22:45;;;;;;;41.03;21.60;;;-5.10;1.00;;;;;;5076646;28;20647;-75
2022/12/18 09:25:11;;;;;;;40.35;20.85;;;-5.00;1.00;;;;;;5056784;28;20232;-75
2022/12/18 09:27:47;;;;;;;40.13;21.20;;;-5.00;1.00;;;;;;5064566;28;20183;-76
2022/12/18 09:30:15;;;;;;;43.63;20.35;;;-4.90;1.00;;;;;;5057211;28;20183;-76
2022/12/18 09:32:45;;;;;;;42.13;20.13;;;-4.80;1.00;;;;;;5066325;28;20228;-76
2022/12/18 09:35:15;;;;;;;42.85;20.85;;;-4.70;1.00;;;;;;5057389;28;20184;-76
2022/12/18 09:37:42;;;;;;;39.50;20.27;;;-4.60;1.00;;;;;;5058875;28;20639;-75
2022/12/18 09:40:20;;;;;;;37.22;19.33;;;-4.50;1.00;;;;;;5063880;28;20175;-75
2022/12/18 09:42:57;;;;;;;37.67;18.55;;;-4.50;1.00;;;;;;5087062;28;20186;-75
2022/12/18 09:45:29;;;;;;;36.45;18.35;;;-4.40;1.00;;;;;;5066214;28;20159;-75
2022/12/18 09:48:05;;;;;;;35.22;18.80;;;-4.30;1.00;;;;;;5059485;28;20208;-75
2022/12/18 09:50:39;;;;;;;39.17;18.77;;;-4.20;1.00;;;;;;5066784;28;20179;-76
2022/12/18 09:53:12;;;;;;;34.08;17.48;;;-4.00;1.00;;;;;;5057184;28;20245;-87
2022/12/18 09:55:47;;;;;;;36.85;18.50;;;-3.90;1.00;;;;;;5057142;28;20221;-86
2022/12/18 09:58:44;;;;;;;38.03;19.65;;;-3.80;1.00;;;;;;5056928;28;20598;-86
2022/12/18 10:01:21;;;;;;;39.42;19.20;;;-3.70;1.00;;;;;;5070023;28;20685;-86
2022/12/18 10:04:05;;;;;;;38.45;18.52;;;-3.70;1.00;;;;;;5056649;28;20160;-85
2022/12/18 10:07:14;;;;;;;44.38;19.23;;;-3.70;1.00;;;;;;5058581;28;20532;-88
2022/12/18 10:10:00;;;;;;;38.63;19.88;;;-3.70;1.00;;;;;;5055626;28;20186;-76
2022/12/18 10:12:37;;;;;;;43.42;18.60;;;-3.70;1.00;;;;;;5046689;28;20600;-76
2022/12/18 10:15:11;;;;;;;43.60;19.08;;;-3.60;1.00;;;;;;5076254;28;20538;-76
2022/12/18 10:17:40;;;;;;;37.60;18.15;;;-3.60;1.00;;;;;;5058088;28;20249;-76
2022/12/18 10:20:17;;;;;;;37.88;18.15;;;-3.60;1.00;;;;;;5063535;28;20191;-76
2022/12/18 10:23:32;;;;;;;36.08;19.95;;;-3.60;1.00;;;;;;5059649;28;20175;-87
2022/12/18 10:26:15;;;;;;;41.65;18.85;;;-3.60;1.00;;;;;;5053080;28;20715;-87
2022/12/18 10:28:45;;;;;;;36.88;18.65;;;-3.50;1.00;;;;;;5058444;28;20187;-87
2022/12/18 10:31:45;;;;;;;39.53;19.58;;;-3.50;1.00;;;;;;5056056;28;20662;-86
2022/12/18 10:34:15;;;;;;;43.08;19.33;;;-3.40;1.00;;;;;;5036458;28;20169;-86
2022/12/18 10:36:47;;;;;;;39.55;18.42;;;-3.30;1.00;;;;;;5050277;28;20180;-87
2022/12/18 10:39:25;;;;;;;41.05;19.45;;;-3.30;1.00;;;;;;5056134;28;20180;-75
2022/12/18 10:41:52;;;;;;;39.67;19.55;;;-3.20;1.00;;;;;;5052762;28;20560;-75
2022/12/18 10:44:23;;;;;;;44.45;20.73;;;-3.30;1.00;;;;;;5062227;28;20524;-75
2022/12/18 10:47:04;;;;;;;38.25;18.67;;;-3.20;1.00;;;;;;5056896;28;20186;-76
2022/12/18 10:49:34;;;;;;;41.58;19.92;;;-3.30;1.00;;;;;;5056204;28;20180;-76
2022/12/18 10:52:20;;;;;;;42.40;19.25;;;-3.20;1.00;;;;;;5074456;28;20182;-75
2022/12/18 10:54:58;;;;;;;44.70;19.58;;;-3.10;1.00;;;;;;5053546;28;20206;-75
2022/12/18 10:57:36;;;;;;;39.35;18.95;;;-2.90;1.00;;;;;;5067822;28;20180;-76
2022/12/18 11:00:25;;;;;;;42.92;19.58;;;-2.80;1.00;;;;;;5065349;28;20289;-75
2022/12/18 11:02:51;;;;;;;41.22;19.30;;;-3.10;1.00;;;;;;5055390;28;20662;-76
2022/12/18 11:05:30;;;;;;;45.50;20.33;;;-3.00;1.00;;;;;;5066789;28;20178;-76
2022/12/18 11:07:57;;;;;;;41.47;19.23;;;-3.00;1.00;;;;;;5055585;28;20445;-75
2022/12/18 11:10:46;;;;;;;42.75;18.40;;;-2.90;1.00;;;;;;5068105;28;20262;-86
2022/12/18 11:13:52;;;;;;;38.05;18.30;;;-2.80;1.00;;;;;;5057957;28;20274;-87
2022/12/18 11:16:21;;;;;;;41.08;19.05;;;-2.80;1.00;;;;;;5055919;28;20190;-79
2022/12/18 11:18:47;;;;;;;41.60;18.52;;;-2.80;1.00;;;;;;5057464;28;20187;-75
2022/12/18 11:21:15;;;;;;;43.93;19.80;;;-2.90;1.00;;;;;;5055308;28;20199;-75
2022/12/18 11:23:50;;;;;;;45.92;20.33;;;-2.80;1.00;;;;;;5055318;28;20417;-74
2022/12/18 11:26:33;;;;;;;50.72;20.63;;;-2.60;1.00;;;;;;5054901;28;20222;-77
2022/12/18 11:29:26;;;;;;;44.13;19.60;;;-2.40;1.00;;;;;;5043542;28;20171;-71
2022/12/18 11:32:19;;;;;;;46.00;19.33;;;-2.30;1.00;;;;;;5054956;28;20237;-85
2022/12/18 11:35:28;;;;;;;41.08;16.90;;;-2.30;1.00;;;;;;5055103;28;20183;-85
2022/12/18 11:38:12;;;;;;;43.47;17.48;;;-2.60;1.00;;;;;;5033124;28;20227;-82
2022/12/18 11:40:43;;;;;;;43.05;18.38;;;-2.70;1.00;;;;;;5052513;28;20234;-77
2022/12/18 11:43:21;;;;;;;38.95;18.65;;;-2.70;1.00;;;;;;5063582;28;20221;-78
2022/12/18 11:45:58;;;;;;;39.70;17.85;;;-2.60;1.00;;;;;;5074286;28;20540;-76
2022/12/18 11:48:34;;;;;;;40.70;18.80;;;-2.50;1.00;;;;;;5042532;28;20167;-76
2022/12/18 11:51:09;;;;;;;42.35;19.38;;;-2.60;1.00;;;;;;5056908;28;20159;-76
2022/12/18 11:53:37;;;;;;;36.13;18.02;;;-2.60;1.00;;;;;;5055175;28;20199;-76
2022/12/18 11:56:21;;;;;;;37.15;17.75;;;-2.60;1.00;;;;;;5054997;28;20270;-77
2022/12/18 11:58:53;;;;;;;42.30;18.67;;;-2.50;1.00;;;;;;5059663;28;20258;-77
2022/12/18 12:01:40;;;;;;;46.45;19.48;;;-2.40;1.00;;;;;;5059790;28;20770;-77
2022/12/18 12:04:31;;;;;;;42.15;17.77;;;-2.30;1.00;;;;;;5069898;28;20289;-77
2022/12/18 12:07:18;;;;;;;46.60;18.95;;;-2.30;1.00;;;;;;5053344;28;20178;-76
2022/12/18 12:09:50;;;;;;;42.78;18.38;;;-2.10;1.00;;;;;;5034693;28;20199;-76
2022/12/18 12:12:47;;;;;;;40.60;19.23;;;-1.90;1.00;;;;;;5064942;28;20647;-76
2022/12/18 12:15:38;;;;;;;39.10;16.98;;;-1.70;1.00;;;;;;5041717;28;20262;-77
2022/12/18 12:18:35;;;;;;;41.30;18.48;;;-1.50;1.00;;;;;;5074760;28;20181;-76
2022/12/18 12:21:27;;;;;;;40.63;18.40;;;-1.30;1.00;;;;;;5062340;28;20206;-77
2022/12/18 12:24:30;;;;;;;45.05;18.38;;;-1.40;1.00;;;;;;5054225;28;20176;-77
2022/12/18 12:27:02;;;;;;;39.85;17.77;;;-1.40;1.00;;;;;;5052325;28;20631;-76
2022/12/18 12:29:49;;;;;;;43.83;18.92;;;-1.30;1.00;;;;;;5052433;28;20182;-77
2022/12/18 12:32:52;;;;;;;45.22;20.00;;;-1.40;1.00;;;;;;5053400;28;20208;-76
2022/12/18 12:35:45;;;;;;;41.80;18.67;;;-1.50;1.00;;;;;;5035395;28;20195;-76
2022/12/18 12:38:35;;;;;;;37.85;18.13;;;-1.40;1.00;;;;;;5065239;28;20210;-77
2022/12/18 12:47:59;;;;;;;45.58;18.85;;;-1.60;1.00;;;;;;5034273;28;20191;-87
2022/12/18 12:57:51;;;;;;;40.30;17.38;;;-1.60;1.00;;;;;;5067958;28;20260;-87
2022/12/18 13:00:23;;;;;;;37.47;17.65;;;-1.60;1.00;;;;;;5055539;28;20228;-87
2022/12/18 13:03:27;;;;;;;41.65;19.08;;;-1.70;1.00;;;;;;5061887;28;20211;-87
2022/12/18 13:10:06;;;;;;;42.92;19.30;;;-1.50;1.00;;;;;;5071064;28;20217;-84
2022/12/18 13:15:41;;;;;;;44.17;18.88;;;-1.40;1.00;;;;;;5044547;28;20223;-76
2022/12/18 13:18:09;;;;;;;43.20;18.77;;;-1.30;1.00;;;;;;5035214;28;20598;-76
2022/12/18 13:21:18;;;;;;;38.65;17.98;;;-1.40;1.00;;;;;;5033513;28;20208;-77
2022/12/18 13:24:19;;;;;;;42.85;18.25;;;-1.40;1.00;;;;;;4988577;28;20545;-76
2022/12/18 13:26:45;;;;;;;44.00;18.88;;;-1.40;1.00;;;;;;4987446;28;20239;-76
2022/12/18 13:29:42;;;;;;;41.63;18.90;;;-1.30;1.00;;;;;;4987855;28;20635;-77
2022/12/18 13:32:29;;;;;;;43.60;19.30;;;-1.30;1.00;;;;;;4937598;29;20427;-76
2022/12/18 13:35:21;;;;;;;38.03;18.65;;;-1.20;1.00;;;;;;4937437;29;20189;-77
2022/12/18 13:37:54;;;;;;;44.70;18.13;;;-1.30;1.00;;;;;;4936865;29;20214;-77
2022/12/18 13:40:39;;;;;;;38.92;19.00;;;-1.30;1.00;;;;;;4919548;29;20252;-76
2022/12/18 13:43:19;;;;;;;39.33;18.27;;;-1.20;1.00;;;;;;4919466;29;20271;-76
2022/12/18 13:46:01;;;;;;;40.65;19.30;;;-1.20;1.00;;;;;;4918363;29;20196;-77
2022/12/18 13:48:51;;;;;;;37.42;17.17;;;-1.30;1.00;;;;;;4936391;29;20277;-76
2022/12/18 13:51:22;;;;;;;38.47;18.00;;;-1.20;1.00;;;;;;4952817;28;20222;-76
2022/12/18 13:54:00;;;;;;;38.38;17.33;;;-1.30;1.00;;;;;;4946810;28;20726;-76
2022/12/18 13:56:51;;;;;;;37.28;17.13;;;-1.30;1.00;;;;;;4962350;28;20260;-87
2022/12/18 14:02:39;;;;;;;41.70;16.92;;;-1.40;1.00;;;;;;5002855;28;20271;-87
2022/12/18 14:14:58;;;;;;;34.97;15.50;;;-1.50;1.00;;;;;;5055747;28;20182;-87
2022/12/18 14:21:27;;;;;;;32.30;16.25;;;-1.50;1.00;;;;;;5050619;28;20342;-87
2022/12/18 14:24:16;;;;;;;36.40;16.08;;;-1.60;1.00;;;;;;5053178;28;20176;-88
2022/12/18 14:26:51;;;;;;;32.75;15.98;;;-1.60;1.00;;;;;;5053035;28;20535;-83
2022/12/18 14:29:30;;;;;;;39.08;17.45;;;-1.60;1.00;;;;;;5052263;28;20213;-83
2022/12/18 14:35:18;;;;;;;44.13;18.58;;;-1.60;1.00;;;;;;5064909;28;20244;-84
2022/12/18 14:38:17;;;;;;;37.47;17.25;;;-1.70;1.00;;;;;;5063039;28;20262;-85
2022/12/18 14:40:57;;;;;;;35.75;15.55;;;-1.70;1.00;;;;;;5063113;28;20198;-82
2022/12/18 14:44:03;;;;;;;38.22;17.55;;;-1.70;1.00;;;;;;5054064;28;21977;-84
2022/12/18 14:46:37;;;;;;;35.15;16.55;;;-1.80;1.00;;;;;;5062221;28;20180;-82
2022/12/18 14:49:24;;;;;;;33.70;16.48;;;-1.90;1.00;;;;;;5064887;28;20649;-83
2022/12/18 14:52:01;;;;;;;36.50;16.52;;;-1.90;1.00;;;;;;5072663;28;20275;-84
2022/12/18 14:54:37;;;;;;;36.28;16.55;;;-2.00;1.00;;;;;;5055050;28;20195;-85
2022/12/18 14:57:21;;;;;;;40.15;17.95;;;-1.90;1.00;;;;;;5056978;28;20175;-79
2022/12/18 15:00:19;;;;;;;35.47;15.43;;;-2.00;1.00;;;;;;5068206;28;20187;-80
2022/12/18 15:02:56;;;;;;;37.50;17.58;;;-2.00;1.00;;;;;;5039639;28;20234;-79
2022/12/18 15:05:29;;;;;;;41.30;18.33;;;-2.00;1.00;;;;;;5023998;28;20184;-80
2022/12/18 15:08:45;;;;;;;38.25;17.30;;;-2.10;1.00;;;;;;5043825;28;20686;-80
2022/12/18 15:11:44;;;;;;;34.83;17.80;;;-2.10;1.00;;;;;;5044050;28;20655;-78
2022/12/18 15:14:40;;;;;;;37.70;17.33;;;-2.10;1.00;;;;;;5026030;28;20186;-75
2022/12/18 15:17:39;;;;;;;40.75;18.35;;;-2.20;1.00;;;;;;5046208;28;20274;-76
2022/12/18 15:20:21;;;;;;;36.00;17.30;;;-2.20;1.00;;;;;;5032443;28;20188;-79
2022/12/18 15:22:58;;;;;;;38.45;15.82;;;-2.30;1.00;;;;;;5042080;28;20207;-80
2022/12/18 15:25:39;;;;;;;37.40;16.85;;;-2.30;1.00;;;;;;5039410;28;20179;-78
2022/12/18 15:28:51;;;;;;;39.05;17.35;;;-2.40;1.00;;;;;;5037232;28;20250;-77
2022/12/18 15:31:23;;;;;;;39.05;17.27;;;-2.40;1.00;;;;;;5033411;28;20188;-79
2022/12/18 15:34:15;;;;;;;40.88;17.65;;;-2.50;1.00;;;;;;5040072;28;20187;-78
2022/12/18 15:36:57;;;;;;;40.67;18.35;;;-2.60;1.00;;;;;;5027766;28;20220;-77
2022/12/18 15:39:35;;;;;;;38.13;15.60;;;-2.60;1.00;;;;;;5027254;28;20219;-77
2022/12/18 15:45:12;;;;;;;38.33;16.60;;;-2.70;1.00;;;;;;5049862;28;20254;-80
2022/12/18 15:47:45;;;;;;;36.22;16.73;;;-2.70;1.00;;;;;;5047564;28;20204;-78
2022/12/18 15:50:28;;;;;;;38.00;17.95;;;-2.80;1.00;;;;;;5047434;28;20180;-77
2022/12/18 15:52:55;;;;;;;39.10;17.30;;;-2.80;1.00;;;;;;5070618;28;20593;-78
2022/12/18 15:58:51;;;;;;;41.08;18.13;;;-2.80;1.00;;;;;;5044571;28;20175;-79
2022/12/18 16:01:33;;;;;;;37.20;17.40;;;-2.90;1.00;;;;;;5039805;28;20188;-79
2022/12/18 16:04:12;;;;;;;40.00;17.90;;;-2.90;1.00;;;;;;5052928;28;20642;-80
2022/12/18 16:06:45;;;;;;;42.85;18.95;;;-2.90;1.00;;;;;;5035092;28;20183;-79
2022/12/18 16:09:21;;;;;;;40.60;17.98;;;-3.00;1.00;;;;;;5074003;28;20585;-79
2022/12/18 16:12:00;;;;;;;40.90;17.30;;;-3.00;1.00;;;;;;5064693;28;20676;-80
2022/12/18 16:14:30;;;;;;;41.97;17.67;;;-3.00;1.00;;;;;;5054181;28;20190;-80
2022/12/18 16:23:45;;;;;;;40.50;17.98;;;-3.00;1.00;;;;;;5067243;28;20232;-80
2022/12/18 16:26:27;;;;;;;42.25;18.00;;;-3.00;1.00;;;;;;5053112;28;20182;-79
2022/12/18 16:29:03;;;;;;;44.13;19.20;;;-3.00;1.00;;;;;;5041187;28;20712;-78
2022/12/18 16:31:51;;;;;;;42.60;18.65;;;-3.00;1.00;;;;;;5053334;28;20205;-79
2022/12/18 16:34:27;;;;;;;41.42;17.40;;;-3.00;1.00;;;;;;5055098;28;20245;-79
2022/12/18 16:37:27;;;;;;;40.78;17.17;;;-3.00;1.00;;;;;;5047482;28;20638;-80
2022/12/18 16:40:27;;;;;;;45.30;19.15;;;-3.00;1.00;;;;;;5055079;28;20188;-79
2022/12/18 16:42:57;;;;;;;41.25;19.30;;;-3.00;1.00;;;;;;5067210;28;20203;-78
2022/12/18 16:45:32;;;;;;;36.40;17.13;;;-3.00;1.00;;;;;;5068962;28;20634;-79
2022/12/18 16:48:03;;;;;;;44.63;19.63;;;-3.00;1.00;;;;;;5055370;28;20179;-79
2022/12/18 16:50:33;;;;;;;42.75;18.63;;;-3.10;1.00;;;;;;5042908;28;20533;-78
2022/12/18 16:52:59;;;;;;;42.08;18.48;;;-3.00;1.00;;;;;;5053287;28;20278;-78
2022/12/18 16:55:39;;;;;;;37.53;17.93;;;-3.00;1.00;;;;;;5052890;28;20326;-78
2022/12/18 16:58:45;;;;;;;50.97;19.60;;;-3.00;1.00;;;;;;5037112;28;20632;-83